createdAt,value
2022-10-17T00:00:55.581Z,95332.91
2022-10-17T00:03:22.169Z,95336.53
2022-10-17T00:05:49.001Z,95329.59
2022-10-17T00:08:19.244Z,95339.22
2022-10-17T00:10:46.171Z,95342.13
2022-10-17T00:13:13.072Z,95333.75
2022-10-17T00:15:44.506Z,95340.72
2022-10-17T00:18:11.181Z,95341.72
2022-10-17T00:20:37.700Z,95347.97
2022-10-17T00:23:04.245Z,95346.31
2022-10-17T00:25:30.880Z,95351.34
2022-10-17T00:27:57.413Z,95347.06
2022-10-17T00:30:24.023Z,95347.31
2022-10-17T00:32:50.701Z,95343.72
2022-10-17T00:35:17.408Z,95350.22
2022-10-17T00:37:43.959Z,95347.84
2022-10-17T00:40:10.848Z,95343.53
2022-10-17T00:42:37.487Z,95349.78
2022-10-17T00:45:14.655Z,95347.66
2022-10-17T00:47:42.726Z,95351.25
2022-10-17T00:50:10.248Z,95341.66
2022-10-17T00:52:37.021Z,95343.84
2022-10-17T00:55:17.702Z,95346.25
2022-10-17T00:57:46.127Z,95343.41
2022-10-17T01:00:14.152Z,95351.06
2022-10-17T01:02:40.687Z,95346.78
2022-10-17T01:05:08.064Z,95346.53
2022-10-17T01:07:37.242Z,95348.72
2022-10-17T01:10:06.701Z,95349.69
2022-10-17T01:13:03.902Z,95345.38
2022-10-17T01:15:49.087Z,95343.25
2022-10-17T01:18:31.048Z,95343.50
2022-10-17T01:21:09.832Z,95344.00
2022-10-17T01:24:02.652Z,95344.22
2022-10-17T01:26:52.538Z,95343.28
2022-10-17T01:29:25.246Z,95350.25
2022-10-17T01:32:00.800Z,95339.94
2022-10-17T01:34:41.477Z,95350.97
2022-10-17T01:37:20.304Z,95358.41
2022-10-17T01:40:03.203Z,95358.91
2022-10-17T01:43:11.547Z,95365.66
2022-10-17T01:45:46.975Z,95359.91
2022-10-17T01:48:18.474Z,95369.75
2022-10-17T01:50:52.859Z,95350.06
2022-10-17T01:53:26.380Z,95353.66
2022-10-17T01:55:55.510Z,95349.38
2022-10-17T01:58:31.587Z,95344.78
2022-10-17T02:01:03.041Z,95343.59
2022-10-17T02:03:32.421Z,95338.09
2022-10-17T02:05:58.976Z,95349.88
2022-10-17T02:08:40.408Z,95355.59
2022-10-17T02:11:18.488Z,95346.72
2022-10-17T02:16:59.536Z,95338.59
2022-10-17T02:19:46.719Z,95333.06
2022-10-17T02:22:58.630Z,95333.34
2022-10-17T02:25:32.468Z,95332.38
2022-10-17T02:28:23.897Z,95330.72
2022-10-17T02:30:53.298Z,95338.84
2022-10-17T02:33:30.968Z,95334.53
2022-10-17T02:36:02.959Z,95334.03
2022-10-17T02:38:31.754Z,95340.78
2022-10-17T02:40:59.097Z,95340.53
2022-10-17T02:43:26.029Z,95344.84
2022-10-17T02:45:52.939Z,95346.53
2022-10-17T02:48:37.645Z,95340.31
2022-10-17T02:51:11.034Z,95340.06
2022-10-17T02:53:53.313Z,95338.38
2022-10-17T02:56:21.621Z,95328.78
2022-10-17T02:58:56.039Z,95333.34
2022-10-17T03:01:23.115Z,95332.41
2022-10-17T03:03:49.749Z,95333.59
2022-10-17T03:06:16.545Z,95332.63
2022-10-17T03:08:43.230Z,95337.63
2022-10-17T03:11:09.768Z,95337.41
2022-10-17T03:13:39.053Z,95342.44
2022-10-17T03:16:06.566Z,95341.00
2022-10-17T03:18:33.184Z,95345.34
2022-10-17T03:20:59.705Z,95340.53
2022-10-17T03:23:26.256Z,95344.09
2022-10-17T03:25:52.787Z,95353.22
2022-10-17T03:28:19.298Z,95352.97
2022-10-17T03:30:45.813Z,95355.09
2022-10-17T03:33:12.353Z,95363.00
2022-10-17T03:35:40.618Z,95369.50
2022-10-17T03:38:07.284Z,95356.06
2022-10-17T03:40:33.801Z,95359.88
2022-10-17T03:43:00.333Z,95363.22
2022-10-17T03:45:29.986Z,95366.59
2022-10-17T03:47:56.556Z,95362.97
2022-10-17T03:50:23.075Z,95368.25
2022-10-17T03:52:49.980Z,95372.78
2022-10-17T03:55:17.349Z,95378.56
2022-10-17T03:57:45.509Z,95385.03
2022-10-17T04:00:12.869Z,95386.94
2022-10-17T04:02:39.403Z,95384.75
2022-10-17T04:05:06.556Z,95391.19
2022-10-17T04:07:33.109Z,95387.13
2022-10-17T04:09:59.640Z,95391.69
2022-10-17T04:12:26.330Z,95385.47
2022-10-17T04:14:53.127Z,95390.50
2022-10-17T04:17:19.692Z,95385.91
2022-10-17T04:19:46.177Z,95391.91
2022-10-17T04:22:12.687Z,95393.81
2022-10-17T04:24:39.313Z,95394.75
2022-10-17T04:27:05.878Z,95390.66
2022-10-17T04:29:32.418Z,95394.25
2022-10-17T04:31:59.001Z,95402.66
2022-10-17T04:34:25.534Z,95403.13
2022-10-17T04:36:52.416Z,95399.03
2022-10-17T04:39:18.987Z,95394.25
2022-10-17T04:41:45.581Z,95388.03
2022-10-17T04:44:12.285Z,95393.78
2022-10-17T04:46:39.335Z,95395.44
2022-10-17T04:49:05.984Z,95392.53
2022-10-17T04:51:32.666Z,95406.16
2022-10-17T04:53:59.187Z,95410.00
2022-10-17T04:56:25.760Z,95407.84
2022-10-17T04:58:52.566Z,95407.56
2022-10-17T05:01:21.445Z,95404.00
2022-10-17T05:03:48.699Z,95415.47
2022-10-17T05:06:18.580Z,95413.28
2022-10-17T05:08:45.935Z,95417.81
2022-10-17T05:11:38.997Z,95411.13
2022-10-17T05:14:05.574Z,95413.72
2022-10-17T05:16:32.108Z,95412.97
2022-10-17T05:18:59.235Z,95414.66
2022-10-17T05:21:27.330Z,95417.78
2022-10-17T05:23:54.520Z,95418.00
2022-10-17T05:26:22.202Z,95421.78
2022-10-17T05:28:48.775Z,95424.91
2022-10-17T05:31:15.680Z,95420.34
2022-10-17T05:33:42.424Z,95425.81
2022-10-17T05:36:09.029Z,95431.59
2022-10-17T05:38:36.057Z,95435.13
2022-10-17T05:41:05.180Z,95433.94
2022-10-17T05:43:33.092Z,95436.78
2022-10-17T05:46:03.839Z,95427.47
2022-10-17T05:48:30.519Z,95432.00
2022-10-17T05:51:02.538Z,95448.25
2022-10-17T05:53:34.088Z,95451.34
2022-10-17T05:56:03.179Z,95444.41
2022-10-17T05:58:49.239Z,95445.56
2022-10-17T06:01:17.154Z,95449.41
2022-10-17T06:03:43.735Z,95447.22
2022-10-17T06:06:12.505Z,95449.59
2022-10-17T06:08:39.302Z,95448.41
2022-10-17T06:11:09.174Z,95460.81
2022-10-17T06:13:37.060Z,95464.66
2022-10-17T06:16:03.661Z,95457.97
2022-10-17T06:18:30.295Z,95467.03
2022-10-17T06:21:03.673Z,95454.34
2022-10-17T06:23:30.250Z,95465.34
2022-10-17T06:26:01.820Z,95463.88
2022-10-17T06:28:28.491Z,95461.25
2022-10-17T06:30:55.100Z,95469.13
2022-10-17T06:33:23.386Z,95473.94
2022-10-17T06:35:56.770Z,95466.50
2022-10-17T06:38:23.827Z,95479.19
2022-10-17T06:40:50.481Z,95480.63
2022-10-17T06:43:17.011Z,95485.63
2022-10-17T06:45:45.861Z,95492.81
2022-10-17T06:48:12.508Z,95501.66
2022-10-17T06:50:39.091Z,95499.03
2022-10-17T06:53:05.729Z,95495.25
2022-10-17T06:55:32.811Z,95495.50
2022-10-17T06:57:59.367Z,95503.63
2022-10-17T07:00:26.898Z,95495.75
2022-10-17T07:02:53.521Z,95514.44
2022-10-17T07:05:20.107Z,95518.50
2022-10-17T07:07:48.567Z,95515.41
2022-10-17T07:10:18.308Z,95523.53
2022-10-17T07:12:45.915Z,95521.13
2022-10-17T07:15:12.573Z,95522.34
2022-10-17T07:17:39.606Z,95520.44
2022-10-17T07:20:06.786Z,95533.63
2022-10-17T07:22:33.336Z,95527.66
2022-10-17T07:25:00.057Z,95532.94
2022-10-17T07:27:26.799Z,95539.19
2022-10-17T07:29:53.525Z,95537.56
2022-10-17T07:32:20.143Z,95535.41
2022-10-17T07:34:46.661Z,95538.31
2022-10-17T07:37:13.489Z,95547.69
2022-10-17T07:39:40.206Z,95551.53
2022-10-17T07:42:07.822Z,95548.66
2022-10-17T07:44:35.571Z,95540.31
2022-10-17T07:47:02.497Z,95541.28
2022-10-17T07:49:29.439Z,95544.69
2022-10-17T07:51:56.079Z,95546.38
2022-10-17T07:54:23.074Z,95534.94
2022-10-17T07:56:52.566Z,95539.94
2022-10-17T07:59:19.803Z,95539.75
2022-10-17T08:01:46.584Z,95542.16
2022-10-17T08:04:13.155Z,95543.88
2022-10-17T08:06:39.685Z,95543.66
2022-10-17T08:09:06.714Z,95550.16
2022-10-17T08:11:33.275Z,95554.97
2022-10-17T08:13:59.848Z,95562.19
2022-10-17T08:16:26.650Z,95560.50
2022-10-17T08:18:53.328Z,95551.69
2022-10-17T08:21:19.973Z,95561.53
2022-10-17T08:23:46.628Z,95552.16
2022-10-17T08:26:16.712Z,95558.69
2022-10-17T08:28:43.358Z,95548.66
2022-10-17T08:31:12.897Z,95549.16
2022-10-17T08:33:39.701Z,95552.31
2022-10-17T08:36:07.172Z,95553.50
2022-10-17T08:38:36.382Z,95551.38
2022-10-17T08:41:12.094Z,95555.47
2022-10-17T08:44:12.216Z,95552.13
2022-10-17T08:46:42.253Z,95556.47
2022-10-17T08:49:20.377Z,95556.25
2022-10-17T08:51:58.963Z,95553.88
2022-10-17T08:54:43.303Z,95553.91
2022-10-17T08:57:13.420Z,95552.50
2022-10-17T08:59:40.063Z,95543.84
2022-10-17T09:02:30.833Z,95550.34
2022-10-17T09:05:01.803Z,95558.50
2022-10-17T09:07:39.721Z,95555.59
2022-10-17T09:10:18.433Z,95563.50
2022-10-17T09:12:49.639Z,95551.75
2022-10-17T09:15:34.438Z,95555.13
2022-10-17T09:18:23.213Z,95554.38
2022-10-17T09:20:54.001Z,95556.06
2022-10-17T09:23:27.211Z,95552.44
2022-10-17T09:25:58.939Z,95549.06
2022-10-17T09:28:30.627Z,95562.50
2022-10-17T09:31:00.151Z,95562.25
2022-10-17T09:33:42.609Z,95559.06
2022-10-17T09:36:20.911Z,95566.75
2022-10-17T09:38:55.925Z,95566.19
2022-10-17T09:41:57.543Z,95567.09
2022-10-17T09:44:20.691Z,95573.34
2022-10-17T09:46:58.320Z,95564.88
2022-10-17T09:49:37.270Z,95569.38
2022-10-17T09:52:08.805Z,95563.59
2022-10-17T09:54:53.394Z,95567.06
2022-10-17T09:57:21.795Z,95570.41
2022-10-17T10:00:01.368Z,95567.31
2022-10-17T10:02:30.590Z,95564.16
2022-10-17T10:05:06.056Z,95566.53
2022-10-17T10:07:38.765Z,95571.25
2022-10-17T10:10:28.112Z,95570.41
2022-10-17T10:13:16.213Z,95566.19
2022-10-17T10:15:48.033Z,95569.03
2022-10-17T10:21:06.805Z,95573.28
2022-10-17T10:23:34.155Z,95578.03
2022-10-17T10:26:05.913Z,95573.13
2022-10-17T10:28:35.630Z,95574.91
2022-10-17T10:31:07.804Z,95572.44
2022-10-17T10:33:41.375Z,95569.09
2022-10-17T10:36:08.292Z,95563.22
2022-10-17T10:38:35.708Z,95574.34
2022-10-17T10:41:08.312Z,95567.88
2022-10-17T10:43:43.322Z,95573.97
2022-10-17T10:46:26.823Z,95573.41
2022-10-17T10:48:59.758Z,95561.66
2022-10-17T10:51:37.983Z,95560.34
2022-10-17T10:54:30.010Z,95566.63
2022-10-17T10:57:03.623Z,95569.50
2022-10-17T10:59:37.406Z,95573.91
2022-10-17T11:02:23.683Z,95564.28
2022-10-17T11:05:20.075Z,95567.19
2022-10-17T11:08:01.130Z,95560.88
2022-10-17T11:10:58.360Z,95561.91
2022-10-17T11:13:29.987Z,95553.44
2022-10-17T11:16:20.576Z,95557.22
2022-10-17T11:18:58.505Z,95555.56
2022-10-17T11:21:45.526Z,95547.63
2022-10-17T11:24:28.546Z,95555.69
2022-10-17T11:27:01.098Z,95547.63
2022-10-17T11:29:31.607Z,95557.00
2022-10-17T11:32:03.268Z,95555.56
2022-10-17T11:34:35.029Z,95549.63
2022-10-17T11:37:09.976Z,95557.00
2022-10-17T11:39:49.687Z,95557.19
2022-10-17T11:42:24.747Z,95552.03
2022-10-17T11:44:56.743Z,95549.78
2022-10-17T11:47:34.137Z,95557.31
2022-10-17T11:53:23.893Z,95556.25
2022-10-17T11:55:52.563Z,95552.28
2022-10-17T11:58:19.165Z,95548.53
2022-10-17T12:00:57.931Z,95553.75
2022-10-17T12:03:27.533Z,95554.19
2022-10-17T12:06:16.374Z,95550.88
2022-10-17T12:09:16.688Z,95547.91
2022-10-17T12:11:58.500Z,95549.44
2022-10-17T12:14:35.299Z,95542.50
2022-10-17T12:17:03.281Z,95550.72
2022-10-17T12:19:37.534Z,95550.44
2022-10-17T12:22:26.637Z,95551.06
2022-10-17T12:25:02.727Z,95544.50
2022-10-17T12:27:37.089Z,95555.72
2022-10-17T12:30:17.455Z,95548.28
2022-10-17T12:33:12.095Z,95548.16
2022-10-17T12:35:39.308Z,95548.53
2022-10-17T12:38:20.829Z,95547.44
2022-10-17T12:40:50.763Z,95545.91
2022-10-17T12:43:17.266Z,95555.31
2022-10-17T12:46:01.207Z,95552.84
2022-10-17T12:49:01.763Z,95547.97
2022-10-17T12:51:37.881Z,95554.72
2022-10-17T12:54:15.129Z,95554.03
2022-10-17T12:56:45.638Z,95552.25
2022-10-17T12:59:24.123Z,95551.94
2022-10-17T13:01:55.281Z,95556.56
2022-10-17T13:04:22.501Z,95560.16
2022-10-17T13:06:54.121Z,95561.06
2022-10-17T13:09:37.707Z,95557.19
2022-10-17T13:12:06.417Z,95558.97
2022-10-17T13:14:41.102Z,95558.78
2022-10-17T13:17:22.056Z,95555.22
2022-10-17T13:19:48.641Z,95551.47
2022-10-17T13:22:18.913Z,95551.69
2022-10-17T13:24:45.998Z,95556.13
2022-10-17T13:27:27.936Z,95560.94
2022-10-17T13:29:56.613Z,95563.09
2022-10-17T13:32:25.027Z,95552.56
2022-10-17T13:35:07.287Z,95557.03
2022-10-17T13:37:35.357Z,95552.06
2022-10-17T13:40:16.215Z,95560.59
2022-10-17T13:42:51.802Z,95559.53
2022-10-17T13:45:30.112Z,95556.50
2022-10-17T13:48:00.141Z,95564.13
2022-10-17T13:50:44.077Z,95560.94
2022-10-17T13:53:30.808Z,95568.06
2022-10-17T13:56:31.449Z,95560.94
2022-10-17T13:59:05.099Z,95559.53
2022-10-17T14:01:32.098Z,95558.44
2022-10-17T14:04:19.177Z,95565.19
2022-10-17T14:06:49.467Z,95561.28
2022-10-17T14:09:25.966Z,95560.56
2022-10-17T14:12:12.838Z,95562.34
2022-10-17T14:15:08.758Z,95564.31
2022-10-17T14:17:33.628Z,95568.41
2022-10-17T14:20:34.017Z,95562.34
2022-10-17T14:23:21.094Z,95565.53
2022-10-17T14:25:41.045Z,95564.09
2022-10-17T14:28:09.502Z,95564.44
2022-10-17T14:30:55.742Z,95574.97
2022-10-17T14:33:32.518Z,95576.56
2022-10-17T14:36:00.893Z,95576.75
2022-10-17T14:38:29.166Z,95563.03
2022-10-17T14:41:29.673Z,95569.28
2022-10-17T14:44:31.611Z,95568.94
2022-10-17T14:47:30.145Z,95573.38
2022-10-17T14:50:01.982Z,95574.63
2022-10-17T14:52:31.242Z,95575.50
2022-10-17T14:54:59.560Z,95579.06
2022-10-17T14:57:28.083Z,95581.41
2022-10-17T14:59:58.102Z,95575.69
2022-10-17T15:02:26.861Z,95581.19
2022-10-17T15:04:54.089Z,95585.66
2022-10-17T15:07:21.336Z,95583.72
2022-10-17T15:09:49.356Z,95582.28
2022-10-17T15:12:22.692Z,95588.34
2022-10-17T15:14:50.658Z,95594.22
2022-10-17T15:17:23.604Z,95585.47
2022-10-17T15:19:50.835Z,95596.00
2022-10-17T15:22:18.290Z,95590.50
2022-10-17T15:24:48.246Z,95597.63
2022-10-17T15:27:26.337Z,95598.16
2022-10-17T15:29:53.117Z,95607.25
2022-10-17T15:32:19.734Z,95605.84
2022-10-17T15:34:46.368Z,95608.31
2022-10-17T15:37:24.957Z,95604.03
2022-10-17T15:39:54.562Z,95606.53
2022-10-17T15:42:23.427Z,95611.56
2022-10-17T15:44:50.363Z,95603.84
2022-10-17T15:47:28.004Z,95602.97
2022-10-17T15:49:55.544Z,95599.44
2022-10-17T15:52:23.526Z,95598.34
2022-10-17T15:54:50.403Z,95607.44
2022-10-17T15:57:30.178Z,95603.84
2022-10-17T15:59:58.701Z,95614.72
2022-10-17T16:02:25.257Z,95615.78
2022-10-17T16:04:52.082Z,95618.09
2022-10-17T16:07:20.209Z,95623.81
2022-10-17T16:09:47.110Z,95629.28
2022-10-17T16:12:19.574Z,95623.59
2022-10-17T16:14:46.245Z,95622.50
2022-10-17T16:17:17.006Z,95624.81
2022-10-17T16:19:44.135Z,95625.69
2022-10-17T16:22:20.944Z,95620.53
2022-10-17T16:24:47.491Z,95630.84
2022-10-17T16:27:14.089Z,95631.69
2022-10-17T16:29:40.598Z,95625.81
2022-10-17T16:32:07.252Z,95633.44
2022-10-17T16:34:33.833Z,95633.06
2022-10-17T16:37:00.367Z,95638.75
2022-10-17T16:41:57.703Z,95639.78
2022-10-17T16:44:25.409Z,95638.69
2022-10-17T16:46:51.986Z,95637.59
2022-10-17T16:49:18.577Z,95639.91
2022-10-17T16:51:45.233Z,95639.31
2022-10-17T16:54:11.797Z,95645.53
2022-10-17T16:56:38.316Z,95642.28
2022-10-17T16:59:05.020Z,95650.38
2022-10-17T17:01:31.715Z,95654.44
2022-10-17T17:03:58.718Z,95659.91
2022-10-17T17:06:28.409Z,95662.91
2022-10-17T17:08:55.811Z,95666.03
2022-10-17T17:11:24.813Z,95671.69
2022-10-17T17:13:51.606Z,95670.41
2022-10-17T17:16:24.154Z,95671.97
2022-10-17T17:18:58.831Z,95673.34
2022-10-17T17:21:27.077Z,95667.44
2022-10-17T17:23:57.008Z,95674.13
2022-10-17T17:26:24.223Z,95674.94
2022-10-17T17:28:51.596Z,95682.34
2022-10-17T17:31:23.221Z,95685.81
2022-10-17T17:33:50.713Z,95681.38
2022-10-17T17:36:23.549Z,95682.19
2022-10-17T17:38:51.436Z,95684.25
2022-10-17T17:41:20.219Z,95683.13
2022-10-17T17:43:47.925Z,95681.31
2022-10-17T17:46:17.007Z,95682.88
2022-10-17T17:48:44.931Z,95675.69
2022-10-17T17:51:13.850Z,95683.78
2022-10-17T17:53:41.134Z,95679.28
2022-10-17T17:56:14.188Z,95690.78
2022-10-17T17:58:45.807Z,95677.59
2022-10-17T18:01:20.684Z,95683.00
2022-10-17T18:03:52.072Z,95689.13
2022-10-17T18:06:20.193Z,95689.25
2022-10-17T18:08:49.670Z,95696.78
2022-10-17T18:11:19.604Z,95696.22
2022-10-17T18:13:52.646Z,95698.94
2022-10-17T18:16:19.346Z,95696.91
2022-10-17T18:18:46.130Z,95697.91
2022-10-17T18:21:14.204Z,95697.50
2022-10-17T18:23:42.497Z,95689.13
2022-10-17T18:26:09.911Z,95697.91
2022-10-17T18:28:38.365Z,95698.00
2022-10-17T18:31:11.219Z,95696.88
2022-10-17T18:33:37.994Z,95696.41
2022-10-17T18:36:07.386Z,95697.25
2022-10-17T18:38:34.173Z,95696.13
2022-10-17T18:41:08.891Z,95695.00
2022-10-17T18:43:36.835Z,95690.47
2022-10-17T18:46:14.984Z,95698.03
2022-10-17T18:48:44.486Z,95695.63
2022-10-17T18:51:12.569Z,95692.34
2022-10-17T18:53:41.141Z,95697.97
2022-10-17T18:56:08.806Z,95700.91
2022-10-17T18:58:37.079Z,95697.81
2022-10-17T19:01:05.557Z,95694.03
2022-10-17T19:03:32.699Z,95696.25
2022-10-17T19:06:07.458Z,95698.50
2022-10-17T19:08:35.380Z,95697.34
2022-10-17T19:11:07.043Z,95699.59
2022-10-17T19:13:33.853Z,95700.56
2022-10-17T19:16:04.238Z,95702.06
2022-10-17T19:18:30.773Z,95706.94
2022-10-17T19:21:05.559Z,95707.97
2022-10-17T19:23:32.577Z,95715.97
2022-10-17T19:26:05.524Z,95711.47
2022-10-17T19:28:33.379Z,95715.84
2022-10-17T19:31:00.323Z,95710.78
2022-10-17T19:36:00.833Z,95720.56
2022-10-17T19:38:27.780Z,95716.25
2022-10-17T19:40:54.561Z,95721.63
2022-10-17T19:43:21.276Z,95715.88
2022-10-17T19:45:58.154Z,95720.22
2022-10-17T19:48:25.442Z,95725.09
2022-10-17T19:50:53.100Z,95727.31
2022-10-17T19:53:22.432Z,95718.19
2022-10-17T19:55:48.954Z,95724.50
2022-10-17T19:58:15.599Z,95721.38
2022-10-17T20:00:57.160Z,95718.28
2022-10-17T20:03:28.109Z,95731.09
2022-10-17T20:05:54.961Z,95726.56
2022-10-17T20:08:21.686Z,95732.16
2022-10-17T20:10:48.433Z,95729.06
2022-10-17T20:13:15.036Z,95730.03
2022-10-17T20:15:41.628Z,95725.00
2022-10-17T20:18:09.005Z,95728.66
2022-10-17T20:20:36.756Z,95735.66
2022-10-17T20:23:04.331Z,95724.59
2022-10-17T20:25:31.030Z,95726.09
2022-10-17T20:27:58.392Z,95723.00
2022-10-17T20:30:28.020Z,95733.34
2022-10-17T20:32:55.766Z,95734.84
2022-10-17T20:35:22.994Z,95742.56
2022-10-17T20:37:49.523Z,95734.44
2022-10-17T20:40:34.044Z,95752.50
2022-10-17T20:43:01.209Z,95760.47
2022-10-17T20:45:38.354Z,95754.22
2022-10-17T20:48:15.623Z,95754.47
2022-10-17T20:50:43.811Z,95745.34
2022-10-17T20:53:35.348Z,95750.41
2022-10-17T20:56:02.987Z,95748.53
2022-10-17T20:58:29.671Z,95748.78
2022-10-17T21:00:56.282Z,95748.78
2022-10-17T21:03:22.924Z,95751.00
2022-10-17T21:05:49.698Z,95748.56
2022-10-17T21:08:16.239Z,95744.53
2022-10-17T21:10:42.892Z,95750.53
2022-10-17T21:13:09.420Z,95747.66
2022-10-17T21:15:36.458Z,95747.19
2022-10-17T21:18:03.161Z,95740.72
2022-10-17T21:20:29.659Z,95746.75
2022-10-17T21:22:57.360Z,95753.00
2022-10-17T21:25:24.038Z,95743.41
2022-10-17T21:27:52.796Z,95744.34
2022-10-17T21:30:20.989Z,95742.22
2022-10-17T21:32:51.437Z,95743.16
2022-10-17T21:35:18.509Z,95744.16
2022-10-17T21:37:45.059Z,95739.84
2022-10-17T21:40:12.485Z,95742.25
2022-10-17T21:42:39.059Z,95743.22
2022-10-17T21:45:15.291Z,95739.16
2022-10-17T21:47:54.950Z,95739.91
2022-10-17T21:50:30.812Z,95741.81
2022-10-17T21:52:58.672Z,95731.47
2022-10-17T21:55:28.035Z,95739.19
2022-10-17T21:57:54.571Z,95738.22
2022-10-17T22:00:21.221Z,95738.00
2022-10-17T22:02:47.712Z,95734.41
2022-10-17T22:05:14.338Z,95737.50
2022-10-17T22:07:41.005Z,95726.00
2022-10-17T22:10:07.874Z,95725.53
2022-10-17T22:12:34.354Z,95730.81
2022-10-17T22:15:00.929Z,95733.94
2022-10-17T22:17:27.653Z,95723.38
2022-10-17T22:19:54.306Z,95721.19
2022-10-17T22:22:20.878Z,95721.91
2022-10-17T22:24:47.394Z,95720.25
2022-10-17T22:27:16.766Z,95724.09
2022-10-17T22:29:43.318Z,95723.66
2022-10-17T22:32:09.859Z,95731.31
2022-10-17T22:34:36.357Z,95723.16
2022-10-17T22:37:02.946Z,95723.63
2022-10-17T22:39:29.436Z,95718.81
2022-10-17T22:41:56.052Z,95722.41
2022-10-17T22:44:22.564Z,95721.94
2022-10-17T22:46:49.302Z,95713.31
2022-10-17T22:49:15.815Z,95709.47
2022-10-17T22:51:42.427Z,95707.28
2022-10-17T22:54:08.973Z,95709.25
2022-10-17T22:56:35.535Z,95710.94
2022-10-17T22:59:02.452Z,95704.91
2022-10-17T23:01:29.034Z,95708.53
2022-10-17T23:03:55.604Z,95704.44
2022-10-17T23:06:25.241Z,95702.28
2022-10-17T23:08:52.293Z,95707.78
2022-10-17T23:11:18.970Z,95703.47
2022-10-17T23:13:45.652Z,95696.75
2022-10-17T23:16:12.326Z,95700.59
2022-10-17T23:18:39.288Z,95694.34
2022-10-17T23:21:06.559Z,95706.13
2022-10-17T23:23:33.146Z,95698.69
2022-10-17T23:26:09.884Z,95697.00
2022-10-17T23:28:36.945Z,95695.56
2022-10-17T23:31:18.167Z,95695.31
2022-10-17T23:33:46.468Z,95701.56
2022-10-17T23:36:15.193Z,95700.09
2022-10-17T23:38:43.552Z,95697.72
2022-10-17T23:41:10.473Z,95694.13
2022-10-17T23:43:37.550Z,95691.47
2022-10-17T23:46:05.555Z,95691.72
2022-10-17T23:48:32.405Z,95690.78
2022-10-17T23:50:58.966Z,95686.66
2022-10-17T23:53:26.360Z,95689.56
2022-10-17T23:55:53.067Z,95691.47
2022-10-17T23:58:19.638Z,95691.00
